Time;durP1;ratioP1;P1;durP2;ratioP2;P2;SDS_P1;SDS_P2;PMS_P1;PMS_P2;Temp;Humidity;BMP_temperature;BMP_pressure;BME280_temperature;BME280_humidity;BME280_pressure;Samples;Min_cycle;Max_cycle;Signal;HPM_P1;HPM_P2
2022/08/03 00:01:36;;;;;;;;;;;19.50;99.90;;;;;;4967654;28;19926;-84
2022/08/03 00:04:04;;;;;;;;;;;19.60;99.90;;;;;;4966545;28;19937;-84
2022/08/03 00:06:32;;;;;;;;;;;19.50;99.90;;;;;;4976557;28;19941;-85
2022/08/03 00:09:04;;;;;;;;;;;19.50;99.90;;;;;;4984051;28;19930;-85
2022/08/03 00:11:32;;;;;;;;;;;19.50;99.90;;;;;;4957413;28;19930;-84
2022/08/03 00:13:59;;;;;;;;;;;19.50;99.90;;;;;;4979182;28;20405;-85
2022/08/03 00:16:27;;;;;;;;;;;19.50;99.90;;;;;;4969360;28;19926;-84
2022/08/03 00:18:54;;;;;;;;;;;19.50;99.90;;;;;;4968411;28;19945;-85
2022/08/03 00:21:22;;;;;;;;;;;19.50;99.90;;;;;;4967036;28;19930;-85
2022/08/03 00:23:49;;;;;;;;;;;19.40;99.90;;;;;;4968507;28;20426;-84
2022/08/03 00:26:19;;;;;;;;;;;19.40;99.90;;;;;;4969823;28;19930;-84
2022/08/03 00:28:47;;;;;;;;;;;19.40;99.90;;;;;;4970258;28;19926;-85
2022/08/03 00:31:15;;;;;;;;;;;19.40;99.90;;;;;;4969626;28;19934;-85
2022/08/03 00:33:42;;;;;;;;;;;19.30;99.90;;;;;;4968550;28;19926;-84
2022/08/03 00:36:26;;;;;;;;;;;19.30;99.90;;;;;;4968384;28;19926;-85
2022/08/03 00:38:54;;;;;;;;;;;19.30;99.90;;;;;;4971781;28;19949;-84
2022/08/03 00:41:22;;;;;;;;;;;19.30;99.90;;;;;;4966268;28;19930;-84
2022/08/03 00:43:49;;;;;;;;;;;19.30;99.90;;;;;;4964737;28;19950;-84
2022/08/03 00:46:17;;;;;;;;;;;19.20;99.90;;;;;;4974472;28;19925;-85
2022/08/03 00:48:48;;;;;;;;;;;19.20;99.90;;;;;;4965658;28;19933;-84
2022/08/03 00:51:16;;;;;;;;;;;19.20;99.90;;;;;;4968913;28;20293;-85
2022/08/03 00:53:44;;;;;;;;;;;19.20;99.90;;;;;;4969168;28;19941;-85
2022/08/03 00:56:13;;;;;;;;;;;19.20;99.90;;;;;;4967289;28;19926;-84
2022/08/03 00:58:42;;;;;;;;;;;19.20;99.90;;;;;;4967826;28;19952;-86
2022/08/03 01:01:11;;;;;;;;;;;19.10;99.90;;;;;;4966902;28;19937;-84
2022/08/03 01:03:39;;;;;;;;;;;19.10;99.90;;;;;;4967166;28;19930;-85
2022/08/03 01:06:17;;;;;;;;;;;19.00;99.90;;;;;;4967622;28;19926;-85
2022/08/03 01:08:44;;;;;;;;;;;19.00;99.90;;;;;;4963911;28;19942;-84
2022/08/03 01:11:26;;;;;;;;;;;19.00;99.90;;;;;;4960105;28;19930;-85
2022/08/03 01:14:00;;;;;;;;;;;19.00;99.90;;;;;;4976596;28;19945;-84
2022/08/03 01:16:45;;;;;;;;;;;19.00;99.90;;;;;;4969689;28;19926;-85
2022/08/03 01:19:16;;;;;;;;;;;19.00;99.90;;;;;;4961638;28;19926;-85
2022/08/03 01:21:59;;;;;;;;;;;19.00;99.90;;;;;;4967029;28;20312;-84
2022/08/03 01:24:47;;;;;;;;;;;18.90;99.90;;;;;;4934520;28;20126;-85
2022/08/03 01:27:20;;;;;;;;;;;18.90;99.90;;;;;;4918234;28;19934;-84
2022/08/03 01:29:51;;;;;;;;;;;18.80;99.90;;;;;;4959486;28;19926;-85
2022/08/03 01:32:41;;;;;;;;;;;18.90;99.90;;;;;;4950773;28;20401;-84
2022/08/03 01:35:50;;;;;;;;;;;18.90;99.90;;;;;;4968260;28;19926;-84
2022/08/03 01:38:24;;;;;;;;;;;18.80;99.90;;;;;;4949907;28;19926;-84
2022/08/03 01:40:53;;;;;;;;;;;18.80;99.90;;;;;;4962829;28;19926;-84
2022/08/03 01:43:26;;;;;;;;;;;18.80;99.90;;;;;;4976810;28;20301;-84
2022/08/03 01:46:16;;;;;;;;;;;18.70;99.90;;;;;;4940181;28;20313;-85
2022/08/03 01:48:45;;;;;;;;;;;18.70;99.90;;;;;;4967261;28;19933;-85
2022/08/03 01:51:14;;;;;;;;;;;18.70;99.90;;;;;;4967049;28;19926;-85
2022/08/03 01:53:42;;;;;;;;;;;18.70;99.90;;;;;;4970762;28;19933;-85
2022/08/03 01:56:10;;;;;;;;;;;18.70;99.90;;;;;;4975339;28;19952;-84
2022/08/03 01:58:39;;;;;;;;;;;18.70;99.90;;;;;;4971112;28;19926;-84
2022/08/03 02:01:07;;;;;;;;;;;18.70;99.90;;;;;;4971151;28;20393;-85
2022/08/03 02:03:37;;;;;;;;;;;18.70;99.90;;;;;;4970130;28;19926;-84
2022/08/03 02:06:25;;;;;;;;;;;18.60;99.90;;;;;;4970797;28;19934;-84
2022/08/03 02:09:14;;;;;;;;;;;18.60;99.90;;;;;;4978264;28;19933;-84
2022/08/03 02:11:43;;;;;;;;;;;18.60;99.90;;;;;;4971353;28;19926;-84
2022/08/03 02:14:13;;;;;;;;;;;18.60;99.90;;;;;;4971478;28;19933;-84
2022/08/03 02:16:42;;;;;;;;;;;18.60;99.90;;;;;;4938463;28;19926;-84
2022/08/03 02:19:10;;;;;;;;;;;18.50;99.90;;;;;;4974173;28;19946;-84
2022/08/03 02:21:37;;;;;;;;;;;18.60;99.90;;;;;;4980718;28;19937;-84
2022/08/03 02:24:25;;;;;;;;;;;18.50;99.90;;;;;;4971112;28;19957;-84
2022/08/03 02:26:54;;;;;;;;;;;18.60;99.90;;;;;;4970581;28;19933;-84
2022/08/03 02:29:23;;;;;;;;;;;18.60;99.90;;;;;;4970851;28;19933;-84
2022/08/03 02:32:12;;;;;;;;;;;18.70;99.90;;;;;;4955582;28;20377;-84
2022/08/03 02:34:44;;;;;;;;;;;18.70;99.90;;;;;;4969758;28;20309;-84
2022/08/03 02:37:11;;;;;;;;;;;18.70;99.90;;;;;;4966616;28;20306;-84
2022/08/03 02:39:40;;;;;;;;;;;18.80;99.90;;;;;;4973989;28;19941;-84
2022/08/03 02:42:08;;;;;;;;;;;18.80;99.90;;;;;;4971125;28;20313;-85
2022/08/03 02:44:39;;;;;;;;;;;18.80;99.90;;;;;;4981734;28;19927;-84
2022/08/03 02:47:08;;;;;;;;;;;18.60;99.90;;;;;;4968902;28;19933;-84
2022/08/03 02:49:36;;;;;;;;;;;18.90;99.90;;;;;;4968671;28;19926;-84
2022/08/03 02:52:22;;;;;;;;;;;18.90;99.90;;;;;;4969412;28;20511;-84
2022/08/03 02:54:52;;;;;;;;;;;19.00;99.90;;;;;;4970951;28;19926;-84
2022/08/03 02:57:20;;;;;;;;;;;19.00;99.90;;;;;;4970949;28;19930;-84
2022/08/03 02:59:48;;;;;;;;;;;19.00;99.90;;;;;;4953563;28;20016;-84
2022/08/03 03:02:17;;;;;;;;;;;19.00;99.90;;;;;;4978294;28;20408;-84
2022/08/03 03:04:44;;;;;;;;;;;19.00;99.90;;;;;;4970549;28;19954;-84
2022/08/03 03:07:33;;;;;;;;;;;19.00;99.90;;;;;;4972650;28;20267;-84
2022/08/03 03:10:22;;;;;;;;;;;19.10;99.90;;;;;;4982656;28;19934;-84
2022/08/03 03:12:51;;;;;;;;;;;19.10;99.90;;;;;;4976045;28;20436;-85
2022/08/03 03:15:18;;;;;;;;;;;19.10;99.90;;;;;;4954473;28;19926;-84
2022/08/03 03:17:47;;;;;;;;;;;19.10;99.90;;;;;;4969333;28;19927;-84
2022/08/03 03:20:14;;;;;;;;;;;19.10;99.90;;;;;;4968952;28;19930;-84
2022/08/03 03:22:57;;;;;;;;;;;19.20;99.90;;;;;;4969479;28;20289;-84
2022/08/03 03:25:24;;;;;;;;;;;19.20;99.90;;;;;;4970646;28;19930;-84
2022/08/03 03:27:52;;;;;;;;;;;19.20;99.90;;;;;;4968651;28;20301;-83
2022/08/03 03:30:19;;;;;;;;;;;19.20;99.90;;;;;;4969862;28;19930;-85
2022/08/03 03:32:47;;;;;;;;;;;19.20;99.90;;;;;;4969843;28;19926;-84
2022/08/03 03:35:15;;;;;;;;;;;19.20;99.90;;;;;;4968266;28;19941;-84
2022/08/03 03:37:42;;;;;;;;;;;19.30;99.90;;;;;;4968791;28;19926;-84
2022/08/03 03:40:10;;;;;;;;;;;19.30;99.90;;;;;;4973472;28;19926;-84
2022/08/03 03:42:38;;;;;;;;;;;19.30;99.90;;;;;;4970858;28;19926;-85
2022/08/03 03:45:06;;;;;;;;;;;19.30;99.90;;;;;;4969437;28;19930;-84
2022/08/03 03:47:34;;;;;;;;;;;19.30;99.90;;;;;;4976223;28;19925;-85
2022/08/03 03:50:02;;;;;;;;;;;19.30;99.90;;;;;;4973808;28;20166;-84
2022/08/03 03:52:31;;;;;;;;;;;19.30;99.90;;;;;;4969855;28;20306;-84
2022/08/03 03:54:58;;;;;;;;;;;19.30;99.90;;;;;;4970092;28;19933;-84
2022/08/03 03:57:28;;;;;;;;;;;19.10;99.90;;;;;;4968621;28;19926;-84
2022/08/03 03:59:55;;;;;;;;;;;19.30;99.90;;;;;;4969665;28;19926;-84
2022/08/03 04:02:23;;;;;;;;;;;19.30;99.90;;;;;;4968641;28;19926;-85
2022/08/03 04:11:03;;;;;;;;;;;19.30;99.90;;;;;;4968921;28;20514;-85
2022/08/03 04:13:35;;;;;;;;;;;19.30;99.90;;;;;;4977990;28;19937;-84
2022/08/03 04:16:03;;;;;;;;;;;19.30;99.90;;;;;;4969456;28;20021;-85
2022/08/03 04:18:32;;;;;;;;;;;19.40;99.90;;;;;;4968443;28;20289;-84
2022/08/03 04:21:02;;;;;;;;;;;19.40;99.90;;;;;;4971107;28;20021;-84
2022/08/03 04:23:32;;;;;;;;;;;19.40;99.90;;;;;;4936287;28;19930;-85
2022/08/03 04:26:01;;;;;;;;;;;19.40;99.90;;;;;;4967774;28;19930;-85
2022/08/03 04:28:30;;;;;;;;;;;19.40;99.90;;;;;;4969206;28;20049;-85
2022/08/03 04:31:00;;;;;;;;;;;19.40;99.90;;;;;;4969401;28;19926;-84
2022/08/03 04:33:28;;;;;;;;;;;19.40;99.90;;;;;;4976762;28;20013;-83
2022/08/03 04:36:00;;;;;;;;;;;19.40;99.90;;;;;;4983781;28;19933;-84
2022/08/03 04:38:31;;;;;;;;;;;19.50;99.90;;;;;;4963748;28;20266;-84
2022/08/03 04:40:59;;;;;;;;;;;19.50;99.90;;;;;;4969977;28;19930;-84
2022/08/03 04:43:28;;;;;;;;;;;19.40;99.90;;;;;;4975628;28;19937;-84
2022/08/03 04:45:55;;;;;;;;;;;19.40;99.90;;;;;;4968507;28;19930;-84
2022/08/03 04:48:23;;;;;;;;;;;19.40;99.90;;;;;;4931876;29;19934;-85
2022/08/03 04:50:51;;;;;;;;;;;19.50;99.90;;;;;;4964678;28;19937;-84
2022/08/03 04:53:19;;;;;;;;;;;19.50;99.90;;;;;;4967009;28;19926;-85
2022/08/03 04:55:46;;;;;;;;;;;19.40;99.90;;;;;;4965846;28;20270;-84
2022/08/03 04:58:14;;;;;;;;;;;19.40;99.90;;;;;;4965217;28;19926;-84
2022/08/03 05:00:42;;;;;;;;;;;19.50;99.90;;;;;;4964795;28;19930;-84
2022/08/03 05:03:09;;;;;;;;;;;19.40;99.90;;;;;;4949134;28;19933;-84
2022/08/03 05:05:51;;;;;;;;;;;19.50;99.90;;;;;;4966484;28;19952;-84
2022/08/03 05:08:28;;;;;;;;;;;19.50;99.90;;;;;;4968113;28;19926;-84
2022/08/03 05:10:56;;;;;;;;;;;19.50;99.90;;;;;;4971271;28;20313;-84
2022/08/03 05:13:25;;;;;;;;;;;19.50;99.90;;;;;;4969744;28;20388;-84
2022/08/03 05:15:53;;;;;;;;;;;19.50;99.90;;;;;;4965669;28;19930;-85
2022/08/03 05:18:20;;;;;;;;;;;19.50;99.90;;;;;;4976688;28;19937;-84
2022/08/03 05:20:48;;;;;;;;;;;19.50;99.90;;;;;;4982357;28;19927;-84
2022/08/03 05:23:15;;;;;;;;;;;19.50;99.90;;;;;;4968999;28;19938;-83
2022/08/03 05:25:43;;;;;;;;;;;19.60;99.90;;;;;;4956553;28;20239;-83
2022/08/03 05:28:16;;;;;;;;;;;19.60;99.90;;;;;;4968505;28;20279;-84
2022/08/03 05:30:43;;;;;;;;;;;19.60;99.90;;;;;;4972834;28;19930;-83
2022/08/03 05:33:11;;;;;;;;;;;19.60;99.90;;;;;;4972843;28;20470;-84
2022/08/03 05:35:38;;;;;;;;;;;19.60;99.90;;;;;;4971710;28;20005;-84
2022/08/03 05:38:26;;;;;;;;;;;19.60;99.90;;;;;;4974576;28;19927;-84
2022/08/03 05:41:04;;;;;;;;;;;19.60;99.90;;;;;;4954699;28;20304;-84
2022/08/03 05:43:53;;;;;;;;;;;19.60;99.90;;;;;;4984123;28;19925;-84
2022/08/03 05:46:21;;;;;;;;;;;19.60;99.90;;;;;;4971776;28;19930;-85
2022/08/03 05:48:48;;;;;;;;;;;19.70;99.90;;;;;;4970511;28;19937;-85
2022/08/03 05:51:16;;;;;;;;;;;19.70;99.90;;;;;;4969360;28;19945;-84
2022/08/03 05:53:44;;;;;;;;;;;19.70;99.90;;;;;;4968436;28;19926;-85
2022/08/03 05:56:11;;;;;;;;;;;19.70;99.90;;;;;;4969879;28;19926;-84
2022/08/03 05:58:43;;;;;;;;;;;19.80;99.90;;;;;;4950204;29;19926;-84
2022/08/03 06:01:11;;;;;;;;;;;19.80;99.90;;;;;;4970204;28;19926;-85
2022/08/03 06:03:38;;;;;;;;;;;19.90;99.90;;;;;;4983153;28;19926;-84
2022/08/03 06:06:06;;;;;;;;;;;19.90;99.90;;;;;;4986354;28;19934;-85
2022/08/03 06:08:33;;;;;;;;;;;19.90;99.90;;;;;;4967498;28;20239;-84
2022/08/03 06:11:03;;;;;;;;;;;19.70;99.90;;;;;;4974466;28;19934;-84
2022/08/03 06:13:31;;;;;;;;;;;20.00;99.90;;;;;;4963526;28;20633;-84
2022/08/03 06:15:59;;;;;;;;;;;20.00;99.90;;;;;;4969569;28;19933;-85
2022/08/03 06:18:26;;;;;;;;;;;20.10;99.90;;;;;;4969885;28;19933;-84
2022/08/03 06:20:53;;;;;;;;;;;20.10;99.90;;;;;;4972089;28;19938;-85
2022/08/03 06:23:21;;;;;;;;;;;20.20;99.90;;;;;;4970334;28;19926;-85
2022/08/03 06:26:09;;;;;;;;;;;20.20;99.90;;;;;;4973569;28;19933;-85
2022/08/03 06:28:39;;;;;;;;;;;20.30;99.90;;;;;;4967697;28;19926;-85
2022/08/03 06:31:24;;;;;;;;;;;20.40;99.90;;;;;;4970714;28;20433;-84
2022/08/03 06:34:03;;;;;;;;;;;20.40;99.90;;;;;;4970362;28;19945;-84
2022/08/03 06:36:51;;;;;;;;;;;20.40;99.90;;;;;;4971344;28;19930;-83
2022/08/03 06:39:20;;;;;;;;;;;20.50;99.90;;;;;;4968494;28;20318;-84
2022/08/03 06:41:51;;;;;;;;;;;20.50;99.90;;;;;;4968620;28;19945;-85
2022/08/03 06:44:18;;;;;;;;;;;20.50;99.90;;;;;;4973169;28;19930;-84
2022/08/03 06:46:46;;;;;;;;;;;20.50;99.90;;;;;;4957387;28;19933;-84
2022/08/03 06:49:14;;;;;;;;;;;20.60;99.90;;;;;;4968404;28;19926;-83
2022/08/03 06:51:41;;;;;;;;;;;20.40;99.90;;;;;;4968787;28;19926;-83
2022/08/03 06:54:29;;;;;;;;;;;20.60;99.90;;;;;;4968356;28;19933;-83
2022/08/03 06:56:59;;;;;;;;;;;20.70;99.90;;;;;;4967477;28;20018;-84
2022/08/03 06:59:28;;;;;;;;;;;20.80;99.90;;;;;;4969463;28;19930;-85
2022/08/03 07:02:17;;;;;;;;;;;20.80;99.90;;;;;;4945355;28;19953;-84
2022/08/03 07:04:49;;;;;;;;;;;20.90;99.90;;;;;;4965353;28;19933;-84
2022/08/03 07:07:18;;;;;;;;;;;20.90;99.90;;;;;;4966270;28;19926;-83
2022/08/03 07:09:47;;;;;;;;;;;20.90;99.90;;;;;;4983793;28;19926;-83
2022/08/03 07:12:28;;;;;;;;;;;21.00;99.90;;;;;;4964440;28;19952;-83
2022/08/03 07:14:56;;;;;;;;;;;20.90;99.90;;;;;;4952988;28;20394;-83
2022/08/03 07:17:28;;;;;;;;;;;21.00;99.90;;;;;;4951842;28;19935;-84
2022/08/03 07:19:56;;;;;;;;;;;21.00;99.90;;;;;;4950709;28;19945;-84
2022/08/03 07:22:24;;;;;;;;;;;21.10;99.90;;;;;;4964525;28;19926;-84
2022/08/03 07:24:52;;;;;;;;;;;21.10;99.90;;;;;;4959861;28;19926;-84
2022/08/03 07:27:19;;;;;;;;;;;21.10;99.90;;;;;;4946702;29;19926;-84
2022/08/03 07:29:46;;;;;;;;;;;21.10;99.90;;;;;;4964811;28;19934;-84
2022/08/03 07:32:14;;;;;;;;;;;21.10;99.90;;;;;;4962216;28;19930;-84
2022/08/03 07:34:42;;;;;;;;;;;21.10;99.90;;;;;;4959847;28;19931;-83
2022/08/03 07:37:10;;;;;;;;;;;21.20;99.90;;;;;;4964066;28;19935;-84
2022/08/03 07:39:37;;;;;;;;;;;21.30;99.90;;;;;;4967392;28;19930;-84
2022/08/03 07:42:05;;;;;;;;;;;21.30;99.90;;;;;;4953557;28;19934;-84
2022/08/03 07:44:32;;;;;;;;;;;21.40;99.90;;;;;;4961119;28;19926;-84
2022/08/03 07:47:00;;;;;;;;;;;21.40;99.90;;;;;;4962987;28;20126;-84
2022/08/03 07:49:30;;;;;;;;;;;21.40;99.90;;;;;;4949247;28;19934;-83
2022/08/03 07:54:44;;;;;;;;;;;21.50;99.90;;;;;;4964924;28;19934;-82
2022/08/03 07:57:11;;;;;;;;;;;21.50;99.90;;;;;;4959068;28;19927;-83
2022/08/03 07:59:39;;;;;;;;;;;21.50;99.90;;;;;;4950664;28;19937;-84
2022/08/03 08:02:23;;;;;;;;;;;21.50;99.90;;;;;;4958285;28;19927;-82
2022/08/03 08:04:51;;;;;;;;;;;21.60;99.90;;;;;;4965786;28;19937;-82
2022/08/03 08:07:19;;;;;;;;;;;21.80;99.90;;;;;;4960457;28;20282;-82
2022/08/03 08:09:47;;;;;;;;;;;21.80;99.90;;;;;;4942387;28;20024;-82
2022/08/03 08:12:15;;;;;;;;;;;21.80;99.90;;;;;;4962453;28;19926;-81
2022/08/03 08:14:47;;;;;;;;;;;21.80;99.90;;;;;;4943067;28;19937;-82
2022/08/03 08:17:16;;;;;;;;;;;21.80;99.90;;;;;;4962794;28;19934;-84
2022/08/03 08:19:44;;;;;;;;;;;21.80;99.90;;;;;;4963304;28;19933;-84
2022/08/03 08:22:18;;;;;;;;;;;21.80;99.90;;;;;;4947883;28;19988;-83
2022/08/03 08:24:56;;;;;;;;;;;21.80;99.90;;;;;;4977010;28;20390;-84
2022/08/03 08:27:24;;;;;;;;;;;21.80;99.90;;;;;;4962480;28;19934;-84
2022/08/03 08:29:52;;;;;;;;;;;21.90;99.90;;;;;;4963396;28;19926;-84
2022/08/03 08:32:25;;;;;;;;;;;22.00;99.90;;;;;;4960427;28;19941;-83
2022/08/03 08:34:52;;;;;;;;;;;22.10;99.90;;;;;;4947129;28;19926;-83
2022/08/03 08:37:20;;;;;;;;;;;22.20;99.90;;;;;;4962146;28;19937;-84
2022/08/03 08:39:48;;;;;;;;;;;22.30;99.90;;;;;;4963211;28;20324;-84
2022/08/03 08:42:15;;;;;;;;;;;22.40;99.90;;;;;;4962387;28;19941;-84
2022/08/03 08:44:43;;;;;;;;;;;22.50;99.90;;;;;;4964275;28;19926;-83
2022/08/03 08:47:11;;;;;;;;;;;22.60;99.90;;;;;;4963101;28;19934;-83
2022/08/03 08:49:39;;;;;;;;;;;22.80;99.70;;;;;;4959849;28;19933;-83
2022/08/03 08:52:26;;;;;;;;;;;23.00;99.50;;;;;;4963408;28;19934;-83
2022/08/03 08:54:59;;;;;;;;;;;23.10;99.20;;;;;;4963055;28;19930;-83
2022/08/03 08:57:28;;;;;;;;;;;23.20;99.10;;;;;;4962009;28;19945;-84
2022/08/03 09:00:12;;;;;;;;;;;23.30;98.60;;;;;;4959434;28;19945;-83
2022/08/03 09:02:44;;;;;;;;;;;23.30;98.70;;;;;;4963086;28;19941;-83
2022/08/03 09:05:12;;;;;;;;;;;23.30;98.40;;;;;;4980210;28;20472;-83
2022/08/03 09:07:40;;;;;;;;;;;23.30;98.60;;;;;;4966410;28;20291;-83
2022/08/03 09:10:10;;;;;;;;;;;23.40;98.50;;;;;;4965484;28;19926;-84
2022/08/03 09:12:50;;;;;;;;;;;23.40;98.50;;;;;;4967258;28;19957;-83
2022/08/03 09:15:22;;;;;;;;;;;23.40;98.40;;;;;;4965829;28;19945;-83
2022/08/03 09:17:50;;;;;;;;;;;23.50;98.30;;;;;;4965371;28;20394;-83
2022/08/03 09:20:19;;;;;;;;;;;23.40;98.10;;;;;;4963982;28;21168;-82
2022/08/03 09:22:54;;;;;;;;;;;23.60;98.30;;;;;;4950471;28;19926;-82
2022/08/03 09:25:26;;;;;;;;;;;23.70;98.00;;;;;;4930874;28;20331;-83
2022/08/03 09:28:02;;;;;;;;;;;23.80;98.00;;;;;;4966413;28;19927;-84
2022/08/03 09:30:33;;;;;;;;;;;23.90;97.90;;;;;;4949779;28;19950;-84
2022/08/03 09:33:03;;;;;;;;;;;23.90;97.70;;;;;;4950812;28;19926;-84
2022/08/03 09:35:31;;;;;;;;;;;24.00;97.80;;;;;;4967513;28;19953;-83
2022/08/03 09:38:24;;;;;;;;;;;24.10;97.30;;;;;;4966037;28;19938;-83
2022/08/03 09:40:53;;;;;;;;;;;24.10;97.40;;;;;;4966643;28;19930;-83
2022/08/03 09:43:27;;;;;;;;;;;24.20;97.40;;;;;;4979716;28;20679;-83
2022/08/03 09:46:02;;;;;;;;;;;24.10;97.30;;;;;;4965975;28;20333;-83
2022/08/03 09:48:30;;;;;;;;;;;22.90;97.00;;;;;;4951232;28;20661;-83
2022/08/03 09:51:00;;;;;;;;;;;24.20;97.30;;;;;;4948090;28;19942;-82
2022/08/03 09:53:47;;;;;;;;;;;24.30;97.40;;;;;;4947171;28;20374;-82
2022/08/03 09:56:41;;;;;;;;;;;24.80;97.10;;;;;;4946893;28;19934;-82
2022/08/03 09:59:10;;;;;;;;;;;24.40;96.80;;;;;;4963322;28;19941;-83
2022/08/03 10:01:40;;;;;;;;;;;24.40;96.90;;;;;;4955610;28;19941;-85
2022/08/03 10:04:21;;;;;;;;;;;24.40;96.50;;;;;;4933712;28;20309;-85
2022/08/03 10:07:04;;;;;;;;;;;24.50;96.80;;;;;;4964248;28;19937;-82
2022/08/03 10:09:51;;;;;;;;;;;24.60;96.70;;;;;;4964177;28;20329;-83
2022/08/03 10:12:25;;;;;;;;;;;24.60;96.40;;;;;;4964810;28;19925;-83
2022/08/03 10:14:54;;;;;;;;;;;24.60;96.40;;;;;;4940391;28;20410;-84
2022/08/03 10:17:26;;;;;;;;;;;24.60;96.10;;;;;;4962477;28;20289;-82
2022/08/03 10:19:57;;;;;;;;;;;24.60;96.30;;;;;;4964500;28;19933;-82
2022/08/03 10:22:27;;;;;;;;;;;24.70;96.20;;;;;;4931188;28;19930;-82
2022/08/03 10:24:58;;;;;;;;;;;24.80;96.00;;;;;;4963559;28;19937;-83
2022/08/03 10:27:28;;;;;;;;;;;24.90;95.80;;;;;;4948083;28;19934;-84
2022/08/03 10:29:59;;;;;;;;;;;24.80;95.80;;;;;;4948951;28;19931;-82
2022/08/03 10:32:33;;;;;;;;;;;24.80;95.70;;;;;;4949990;28;19937;-83
2022/08/03 10:35:10;;;;;;;;;;;24.80;95.80;;;;;;4957010;28;20312;-81
2022/08/03 10:37:50;;;;;;;;;;;24.90;95.90;;;;;;4952681;28;19941;-83
2022/08/03 10:40:25;;;;;;;;;;;25.00;95.80;;;;;;4947167;28;19942;-83
2022/08/03 10:43:17;;;;;;;;;;;25.20;95.40;;;;;;4963078;28;19933;-81
2022/08/03 10:45:45;;;;;;;;;;;25.40;95.40;;;;;;4946723;28;21129;-82
2022/08/03 10:48:15;;;;;;;;;;;25.50;95.00;;;;;;4946684;28;20309;-82
2022/08/03 10:50:44;;;;;;;;;;;25.50;94.90;;;;;;4964183;28;19934;-82
2022/08/03 10:53:36;;;;;;;;;;;25.00;94.80;;;;;;4963487;28;19933;-81
2022/08/03 10:59:32;;;;;;;;;;;25.80;94.80;;;;;;4943242;28;19926;-82
2022/08/03 11:02:07;;;;;;;;;;;26.00;94.40;;;;;;4963880;28;19941;-82
2022/08/03 11:04:37;;;;;;;;;;;26.20;94.20;;;;;;4945448;28;19933;-82
2022/08/03 11:07:14;;;;;;;;;;;26.20;93.70;;;;;;4960850;28;19937;-80
2022/08/03 11:09:47;;;;;;;;;;;26.30;93.70;;;;;;4964992;28;19950;-84
2022/08/03 11:12:31;;;;;;;;;;;26.20;93.80;;;;;;4979486;28;20416;-83
2022/08/03 11:15:05;;;;;;;;;;;26.30;93.90;;;;;;4965908;28;19934;-84
2022/08/03 11:17:35;;;;;;;;;;;26.30;93.80;;;;;;4953849;28;20461;-81
2022/08/03 11:20:41;;;;;;;;;;;26.30;93.70;;;;;;4969260;28;20056;-88
2022/08/03 11:23:09;;;;;;;;;;;26.40;93.70;;;;;;4979724;28;19937;-83
2022/08/03 11:25:57;;;;;;;;;;;26.30;93.30;;;;;;4981169;28;19925;-89
2022/08/03 11:28:27;;;;;;;;;;;26.20;93.50;;;;;;4971146;28;20012;-89
2022/08/03 11:31:17;;;;;;;;;;;26.40;93.50;;;;;;4976254;28;19933;-84
2022/08/03 11:34:14;;;;;;;;;;;26.40;93.40;;;;;;4969747;28;19926;-82
2022/08/03 11:37:01;;;;;;;;;;;26.50;93.50;;;;;;4970079;28;19937;-85
2022/08/03 11:39:45;;;;;;;;;;;26.60;93.30;;;;;;4951450;28;19938;-86
2022/08/03 11:42:26;;;;;;;;;;;26.80;93.00;;;;;;4956004;28;19927;-87
2022/08/03 11:44:55;;;;;;;;;;;26.90;93.00;;;;;;4937122;28;19930;-83
2022/08/03 11:47:25;;;;;;;;;;;26.90;93.00;;;;;;4968349;28;20448;-84
2022/08/03 11:49:56;;;;;;;;;;;26.90;92.60;;;;;;4972199;28;19937;-84
2022/08/03 11:52:24;;;;;;;;;;;26.90;92.30;;;;;;4968814;28;20456;-84
2022/08/03 11:54:55;;;;;;;;;;;26.90;92.70;;;;;;4971448;28;19926;-83
2022/08/03 11:57:27;;;;;;;;;;;27.20;92.80;;;;;;4957224;28;19938;-85
2022/08/03 12:00:19;;;;;;;;;;;27.30;92.40;;;;;;4972193;28;19932;-86
2022/08/03 12:02:54;;;;;;;;;;;27.50;92.20;;;;;;4968841;28;19930;-83
2022/08/03 12:05:31;;;;;;;;;;;27.40;92.00;;;;;;4968601;28;19927;-82
2022/08/03 12:07:59;;;;;;;;;;;27.30;92.00;;;;;;4930957;28;20305;-82
2022/08/03 12:10:32;;;;;;;;;;;27.10;92.10;;;;;;4981789;28;19926;-83
2022/08/03 12:13:01;;;;;;;;;;;27.10;92.10;;;;;;4960620;28;19926;-82
2022/08/03 12:15:29;;;;;;;;;;;27.10;92.20;;;;;;4953234;28;19926;-82
2022/08/03 12:17:57;;;;;;;;;;;27.30;92.00;;;;;;4968763;28;19930;-82
2022/08/03 12:20:27;;;;;;;;;;;27.40;91.80;;;;;;4969488;28;19937;-83
2022/08/03 12:23:03;;;;;;;;;;;27.60;91.70;;;;;;4967965;28;20278;-82
2022/08/03 12:25:31;;;;;;;;;;;27.80;91.30;;;;;;4968670;28;19930;-82
2022/08/03 12:28:07;;;;;;;;;;;27.90;91.00;;;;;;4970226;28;20103;-82
2022/08/03 12:30:54;;;;;;;;;;;27.90;90.80;;;;;;4967408;28;20416;-83
2022/08/03 12:33:26;;;;;;;;;;;27.90;90.70;;;;;;4969602;28;19930;-83
2022/08/03 12:36:03;;;;;;;;;;;27.90;90.60;;;;;;4968669;28;20331;-84
2022/08/03 12:38:31;;;;;;;;;;;28.00;90.50;;;;;;4971863;28;19930;-82
2022/08/03 12:41:14;;;;;;;;;;;28.20;90.30;;;;;;4954270;28;19930;-83
2022/08/03 12:43:48;;;;;;;;;;;28.30;90.30;;;;;;4977266;28;20020;-84
2022/08/03 12:46:17;;;;;;;;;;;28.50;90.00;;;;;;4966997;28;19930;-83
2022/08/03 12:49:01;;;;;;;;;;;28.70;89.00;;;;;;4968090;28;19930;-84
2022/08/03 12:51:30;;;;;;;;;;;28.70;88.70;;;;;;4949629;28;19957;-83
2022/08/03 12:53:58;;;;;;;;;;;28.70;88.40;;;;;;4964192;28;19930;-83
2022/08/03 12:56:26;;;;;;;;;;;28.60;88.70;;;;;;4952024;28;19937;-83
2022/08/03 12:58:53;;;;;;;;;;;28.70;88.40;;;;;;4970246;28;19930;-82
2022/08/03 13:01:23;;;;;;;;;;;28.80;88.20;;;;;;4969844;28;19934;-82
2022/08/03 13:03:52;;;;;;;;;;;28.80;87.60;;;;;;4969986;28;19926;-83
2022/08/03 13:06:20;;;;;;;;;;;28.90;87.40;;;;;;4967538;28;20181;-83
2022/08/03 13:08:48;;;;;;;;;;;28.90;87.40;;;;;;4973655;28;19926;-82
2022/08/03 13:11:23;;;;;;;;;;;29.10;87.20;;;;;;4977742;28;19934;-83
2022/08/03 13:14:11;;;;;;;;;;;29.30;86.40;;;;;;4980537;28;19934;-82
2022/08/03 13:16:49;;;;;;;;;;;29.50;86.40;;;;;;4968914;28;19941;-82
2022/08/03 13:19:16;;;;;;;;;;;29.70;86.10;;;;;;4972914;28;19937;-82
2022/08/03 13:21:45;;;;;;;;;;;29.90;85.70;;;;;;4972629;28;19937;-83
2022/08/03 13:24:30;;;;;;;;;;;30.00;84.30;;;;;;4973221;28;19926;-83
2022/08/03 13:26:58;;;;;;;;;;;30.30;84.30;;;;;;4969362;28;19926;-83
2022/08/03 13:29:26;;;;;;;;;;;30.40;83.50;;;;;;4972256;28;19930;-84
2022/08/03 13:31:53;;;;;;;;;;;30.50;83.70;;;;;;4973766;28;19937;-84
2022/08/03 13:34:21;;;;;;;;;;;30.70;83.20;;;;;;4973775;28;19937;-84
2022/08/03 13:36:50;;;;;;;;;;;30.70;83.30;;;;;;4971571;28;20404;-85
2022/08/03 13:39:36;;;;;;;;;;;30.90;83.00;;;;;;4974625;28;19930;-82
2022/08/03 13:42:24;;;;;;;;;;;31.00;82.30;;;;;;4973476;28;19933;-83
2022/08/03 13:44:51;;;;;;;;;;;31.00;81.90;;;;;;4975827;28;19971;-84
2022/08/03 13:47:19;;;;;;;;;;;30.80;81.90;;;;;;4970219;28;19934;-82
2022/08/03 13:49:50;;;;;;;;;;;30.90;82.10;;;;;;4973101;28;19994;-82
2022/08/03 13:52:27;;;;;;;;;;;30.80;82.00;;;;;;4970399;28;19994;-83
2022/08/03 13:54:54;;;;;;;;;;;30.90;82.30;;;;;;4970482;28;19933;-83
2022/08/03 13:57:22;;;;;;;;;;;31.30;82.10;;;;;;4971878;28;20178;-83
2022/08/03 14:00:09;;;;;;;;;;;31.60;80.70;;;;;;4974488;28;19937;-83
2022/08/03 14:02:37;;;;;;;;;;;31.90;80.00;;;;;;4976467;28;19926;-84
2022/08/03 14:05:05;;;;;;;;;;;31.90;79.60;;;;;;4967857;28;19933;-82
2022/08/03 14:07:33;;;;;;;;;;;31.60;79.30;;;;;;4972668;28;19926;-83
2022/08/03 14:10:00;;;;;;;;;;;31.60;79.70;;;;;;4981125;28;19934;-84
2022/08/03 14:12:28;;;;;;;;;;;31.60;78.80;;;;;;4978949;28;19936;-83
2022/08/03 14:14:57;;;;;;;;;;;31.40;79.40;;;;;;4982379;28;20330;-86
2022/08/03 14:17:27;;;;;;;;;;;31.60;78.80;;;;;;4959832;28;19926;-85
2022/08/03 14:20:15;;;;;;;;;;;31.80;78.60;;;;;;4971931;28;19945;-86
2022/08/03 14:23:03;;;;;;;;;;;31.90;77.60;;;;;;4977335;28;19933;-85
2022/08/03 14:25:31;;;;;;;;;;;32.40;77.60;;;;;;4979277;28;19930;-85
2022/08/03 14:28:11;;;;;;;;;;;32.80;77.10;;;;;;4968157;28;20349;-84
2022/08/03 14:30:38;;;;;;;;;;;33.00;76.10;;;;;;4972908;28;19934;-84
2022/08/03 14:33:05;;;;;;;;;;;32.90;75.90;;;;;;4973671;28;19937;-85
2022/08/03 14:35:35;;;;;;;;;;;32.90;76.10;;;;;;4969509;28;19941;-85
2022/08/03 14:38:02;;;;;;;;;;;33.00;75.80;;;;;;4956459;28;19941;-83
2022/08/03 14:40:30;;;;;;;;;;;33.10;75.40;;;;;;4971301;28;19926;-85
2022/08/03 14:42:58;;;;;;;;;;;33.30;74.80;;;;;;4971724;28;19930;-86
2022/08/03 14:45:26;;;;;;;;;;;33.70;74.50;;;;;;4975761;28;19930;-86
2022/08/03 14:47:53;;;;;;;;;;;33.70;74.20;;;;;;4974712;28;19934;-86
2022/08/03 14:50:41;;;;;;;;;;;33.60;73.70;;;;;;4957404;28;20412;-86
2022/08/03 14:53:17;;;;;;;;;;;33.80;73.70;;;;;;4969985;28;20833;-87
2022/08/03 14:55:47;;;;;;;;;;;33.40;73.20;;;;;;4975254;28;19945;-89
2022/08/03 14:58:21;;;;;;;;;;;33.10;74.20;;;;;;4980612;28;19934;-86